Time;durP1;ratioP1;P1;durP2;ratioP2;P2;SDS_P1;SDS_P2;PMS_P1;PMS_P2;Temp;Humidity;BMP_temperature;BMP_pressure;BME280_temperature;BME280_humidity;BME280_pressure;Samples;Min_cycle;Max_cycle;Signal;HPM_P1;HPM_P2
2023/08/24 00:01:49;;;;;;;9.57;5.80;;;;;;;18.64;78.58;101749.38;5035705;28;20021;-68
2023/08/24 00:04:14;;;;;;;8.98;5.50;;;;;;;18.62;78.40;101745.19;5037609;28;20040;-67
2023/08/24 00:06:39;;;;;;;8.93;5.45;;;;;;;18.63;78.93;101742.34;5043396;28;20049;-67
2023/08/24 00:09:05;;;;;;;11.02;6.30;;;;;;;18.59;78.66;101738.38;5042630;28;20481;-67
2023/08/24 00:11:31;;;;;;;7.72;5.22;;;;;;;18.54;78.68;101736.28;5048252;28;20045;-67
2023/08/24 00:13:57;;;;;;;7.90;5.85;;;;;;;18.35;78.62;101742.41;5034938;28;20029;-67
2023/08/24 00:16:22;;;;;;;11.77;6.25;;;;;;;18.24;78.90;101742.97;5032781;28;20371;-67
2023/08/24 00:18:47;;;;;;;8.88;5.82;;;;;;;18.11;79.35;101762.53;5046781;28;20395;-67
2023/08/24 00:21:16;;;;;;;9.45;6.30;;;;;;;18.00;80.09;101763.09;5033436;28;20021;-67
2023/08/24 00:23:42;;;;;;;9.23;6.53;;;;;;;18.04;80.23;101755.47;5033825;28;20394;-67
2023/08/24 00:26:07;;;;;;;9.65;6.47;;;;;;;17.95;80.60;101761.00;5041912;28;20028;-67
2023/08/24 00:28:32;;;;;;;13.65;6.28;;;;;;;18.08;81.03;101757.56;5030335;28;20021;-67
2023/08/24 00:30:58;;;;;;;9.70;6.60;;;;;;;18.11;81.11;101750.94;5035583;28;20026;-67
2023/08/24 00:33:23;;;;;;;9.25;6.03;;;;;;;18.18;80.89;101741.88;5035819;28;20025;-67
2023/08/24 00:35:48;;;;;;;7.30;5.60;;;;;;;18.18;81.03;101738.38;5032062;28;20029;-67
2023/08/24 00:38:14;;;;;;;11.38;6.20;;;;;;;18.13;80.69;101733.59;5030497;28;20386;-67
2023/08/24 00:40:41;;;;;;;12.10;6.10;;;;;;;18.15;80.94;101730.69;5031803;28;20024;-67
2023/08/24 00:43:07;;;;;;;9.48;6.30;;;;;;;18.10;80.49;101730.47;5034219;28;20540;-67
2023/08/24 00:45:33;;;;;;;8.82;6.10;;;;;;;18.10;80.62;101742.06;5034085;28;20023;-67
2023/08/24 00:47:59;;;;;;;7.03;5.80;;;;;;;18.08;80.46;101736.03;5034285;28;20075;-68
2023/08/24 00:50:24;;;;;;;9.15;6.35;;;;;;;17.98;80.47;101740.97;5042976;28;20029;-67
2023/08/24 00:52:49;;;;;;;11.23;6.28;;;;;;;17.85;80.63;101738.16;5033402;28;20395;-67
2023/08/24 00:55:16;;;;;;;8.93;5.85;;;;;;;17.90;80.87;101735.72;5029854;28;20090;-67
2023/08/24 00:57:42;;;;;;;8.77;6.03;;;;;;;17.96;81.25;101726.88;5028811;28;20017;-67
2023/08/24 01:00:11;;;;;;;8.00;5.78;;;;;;;17.99;81.44;101725.66;5029660;28;20033;-67
2023/08/24 01:02:37;;;;;;;7.95;5.78;;;;;;;18.00;81.67;101721.94;5031702;28;20021;-67
2023/08/24 01:05:04;;;;;;;7.35;5.32;;;;;;;17.95;81.90;101717.16;5036447;28;20044;-66
2023/08/24 01:07:31;;;;;;;9.32;5.80;;;;;;;17.97;81.96;101725.03;5029833;28;20234;-67
2023/08/24 01:09:56;;;;;;;5.75;5.07;;;;;;;18.01;81.90;101727.13;5032120;28;20636;-67
2023/08/24 01:12:46;;;;;;;9.60;6.00;;;;;;;18.12;82.13;101714.97;5039929;28;20164;-67
2023/08/24 01:15:29;;;;;;;11.10;5.78;;;;;;;18.11;82.48;101716.00;5036301;28;20430;-67
2023/08/24 01:17:59;;;;;;;9.52;5.50;;;;;;;18.07;82.28;101722.81;5031378;28;20128;-67
2023/08/24 01:20:24;;;;;;;8.65;5.88;;;;;;;18.07;82.50;101715.56;5036389;28;20022;-67
2023/08/24 01:23:13;;;;;;;6.95;5.55;;;;;;;18.11;82.63;101718.69;5030964;28;20036;-67
2023/08/24 01:25:53;;;;;;;8.57;5.68;;;;;;;18.07;82.64;101715.56;5050456;28;20033;-67
2023/08/24 01:28:20;;;;;;;9.75;6.05;;;;;;;18.10;82.22;101703.59;5039762;28;20025;-67
2023/08/24 01:30:46;;;;;;;8.50;5.85;;;;;;;18.11;82.41;101706.06;5032248;28;20505;-67
2023/08/24 01:33:11;;;;;;;7.55;6.22;;;;;;;18.15;82.38;101699.25;5031384;28;20033;-67
2023/08/24 01:35:37;;;;;;;10.10;6.68;;;;;;;18.23;82.09;101701.81;5036698;28;20032;-67
2023/08/24 01:38:04;;;;;;;9.90;6.15;;;;;;;18.15;82.22;101704.66;5030967;28;20104;-67
2023/08/24 01:40:52;;;;;;;11.15;5.78;;;;;;;18.13;82.57;101709.41;5030485;28;20031;-67
2023/08/24 01:43:21;;;;;;;8.70;6.15;;;;;;;18.10;82.95;101719.72;5034286;28;20032;-67
2023/08/24 01:45:47;;;;;;;9.73;6.07;;;;;;;18.08;83.16;101717.22;5030356;28;20053;-67
2023/08/24 01:48:13;;;;;;;8.98;6.20;;;;;;;17.95;83.25;101722.53;5035022;28;20396;-67
2023/08/24 01:50:40;;;;;;;12.20;6.40;;;;;;;17.93;83.41;101716.53;5032587;28;20021;-67
2023/08/24 01:53:05;;;;;;;9.82;5.90;;;;;;;18.01;83.59;101710.16;5035789;28;20543;-67
2023/08/24 01:55:31;;;;;;;9.43;6.50;;;;;;;18.03;83.49;101716.16;5033077;28;20036;-67
2023/08/24 01:57:56;;;;;;;12.90;6.35;;;;;;;18.07;83.69;101733.56;5037279;28;20030;-67
2023/08/24 02:00:22;;;;;;;8.85;6.00;;;;;;;18.11;83.99;101726.75;5035765;28;20036;-67
2023/08/24 02:02:47;;;;;;;11.77;6.20;;;;;;;18.15;84.12;101730.69;5033597;28;20029;-67
2023/08/24 02:05:12;;;;;;;8.43;6.22;;;;;;;18.13;84.20;101725.53;5035680;28;20036;-67
2023/08/24 02:07:39;;;;;;;9.77;5.93;;;;;;;18.19;84.06;101719.34;5047055;28;20478;-67
2023/08/24 02:10:05;;;;;;;9.90;6.15;;;;;;;18.22;84.02;101707.38;5047723;28;20029;-66
2023/08/24 02:12:30;;;;;;;9.77;5.88;;;;;;;18.22;84.25;101699.31;5038912;28;20100;-67
2023/08/24 02:14:56;;;;;;;10.30;6.15;;;;;;;18.18;84.14;101715.00;5041186;28;20028;-68
2023/08/24 02:17:21;;;;;;;12.50;6.43;;;;;;;18.22;84.27;101720.84;5042954;28;20060;-67
2023/08/24 02:19:46;;;;;;;11.07;6.63;;;;;;;18.28;84.09;101711.97;5043189;28;20029;-67
2023/08/24 02:22:11;;;;;;;8.15;5.93;;;;;;;18.27;83.92;101723.75;5030570;28;20557;-67
2023/08/24 02:24:37;;;;;;;11.25;6.13;;;;;;;18.21;84.14;101716.44;5039636;28;20108;-67
2023/08/24 02:27:02;;;;;;;8.70;6.32;;;;;;;18.26;84.34;101720.22;5037415;28;20029;-67
2023/08/24 02:29:30;;;;;;;10.00;6.63;;;;;;;18.25;84.57;101715.88;5040203;28;20024;-67
2023/08/24 02:31:55;;;;;;;11.32;6.68;;;;;;;18.28;84.84;101709.28;5038526;28;20089;-67
2023/08/24 02:34:20;;;;;;;8.05;6.38;;;;;;;18.36;84.87;101709.09;5037832;28;20113;-67
2023/08/24 02:36:46;;;;;;;9.10;6.30;;;;;;;18.41;84.82;101689.66;5042457;28;20032;-67
2023/08/24 02:39:11;;;;;;;10.25;6.93;;;;;;;18.42;84.60;101680.56;5037141;28;20040;-67
2023/08/24 02:41:37;;;;;;;12.30;6.60;;;;;;;18.38;84.51;101668.56;5044638;28;20589;-67
2023/08/24 02:44:03;;;;;;;11.15;6.72;;;;;;;18.35;85.04;101675.16;5039915;28;20020;-67
2023/08/24 02:46:28;;;;;;;10.55;6.82;;;;;;;18.38;84.87;101655.09;5043499;28;20018;-66
2023/08/24 02:48:54;;;;;;;10.20;7.30;;;;;;;18.41;85.04;101665.47;5039611;28;20028;-67
2023/08/24 02:51:21;;;;;;;11.50;7.60;;;;;;;18.39;85.33;101662.13;5034212;28;20035;-67
2023/08/24 02:53:46;;;;;;;11.18;7.15;;;;;;;18.40;84.99;101635.03;5045583;28;20490;-67
2023/08/24 02:56:12;;;;;;;12.13;7.63;;;;;;;18.37;85.23;101629.25;5043801;28;20033;-67
2023/08/24 02:58:37;;;;;;;12.80;8.77;;;;;;;18.35;85.34;101601.72;5031967;28;20075;-67
2023/08/24 03:01:07;;;;;;;13.35;7.88;;;;;;;18.30;85.62;101588.06;5032929;28;20036;-67
2023/08/24 03:03:32;;;;;;;14.43;8.05;;;;;;;18.23;85.72;101575.44;5043659;28;20040;-67
2023/08/24 03:05:59;;;;;;;12.02;8.68;;;;;;;18.22;86.29;101570.25;5038859;28;20029;-67
2023/08/24 03:08:25;;;;;;;15.10;8.90;;;;;;;18.21;86.79;101545.25;5045292;28;20053;-67
2023/08/24 03:10:50;;;;;;;14.07;9.23;;;;;;;18.19;86.46;101525.78;5032349;28;20056;-66
2023/08/24 03:13:16;;;;;;;14.18;9.60;;;;;;;18.14;87.02;101516.66;5039946;28;20045;-68
2023/08/24 03:15:41;;;;;;;16.95;10.23;;;;;;;18.11;87.62;101520.59;5040885;28;20041;-68
2023/08/24 03:18:06;;;;;;;16.30;9.85;;;;;;;18.13;87.96;101523.06;5039317;28;20099;-67
2023/08/24 03:20:32;;;;;;;16.20;10.73;;;;;;;18.12;87.98;101540.22;5041978;28;20061;-67
2023/08/24 03:22:57;;;;;;;18.17;10.50;;;;;;;18.16;88.06;101546.84;5044761;28;20536;-67
2023/08/24 03:25:23;;;;;;;13.07;10.48;;;;;;;18.17;88.21;101540.44;5046652;28;20032;-67
2023/08/24 03:27:48;;;;;;;15.18;11.32;;;;;;;18.17;88.40;101533.22;5044217;28;20421;-67
2023/08/24 03:30:14;;;;;;;16.90;11.10;;;;;;;18.18;88.57;101532.19;5037936;28;20029;-67
2023/08/24 03:32:42;;;;;;;14.50;11.10;;;;;;;18.18;88.83;101540.25;5040145;28;20025;-67
2023/08/24 03:35:07;;;;;;;15.60;11.63;;;;;;;18.24;89.02;101538.63;5043465;28;20497;-67
2023/08/24 03:37:33;;;;;;;17.67;11.40;;;;;;;18.25;89.27;101541.09;5041498;28;20017;-66
2023/08/24 03:39:58;;;;;;;16.20;11.43;;;;;;;18.25;89.62;101538.41;5037093;28;20077;-67
2023/08/24 03:42:24;;;;;;;17.60;11.23;;;;;;;18.25;89.71;101538.41;5046740;28;20057;-67
2023/08/24 03:44:49;;;;;;;16.17;11.18;;;;;;;18.24;89.97;101544.00;5037296;28;20142;-67
2023/08/24 03:47:15;;;;;;;15.75;11.25;;;;;;;18.24;89.96;101552.06;5036483;28;20505;-67
2023/08/24 03:49:44;;;;;;;18.38;11.73;;;;;;;18.26;90.23;101568.81;5036901;28;20053;-67
2023/08/24 03:52:09;;;;;;;14.40;11.20;;;;;;;18.23;90.06;101564.69;5041877;28;20029;-67
2023/08/24 03:54:34;;;;;;;15.63;10.45;;;;;;;18.25;90.01;101565.31;5037995;28;20793;-67
2023/08/24 03:57:01;;;;;;;16.33;11.27;;;;;;;18.25;90.11;101564.47;5034377;28;20084;-67
2023/08/24 03:59:26;;;;;;;15.38;11.32;;;;;;;18.22;89.76;101560.34;5043276;28;20017;-67
2023/08/24 04:01:51;;;;;;;17.05;11.27;;;;;;;18.25;90.25;101551.88;5043902;28;20390;-67
2023/08/24 04:04:16;;;;;;;18.23;10.70;;;;;;;18.26;90.31;101540.06;5036824;28;20025;-67
2023/08/24 04:06:42;;;;;;;19.13;11.27;;;;;;;18.25;90.03;101534.91;5038833;28;20442;-67
2023/08/24 04:09:07;;;;;;;19.25;11.23;;;;;;;18.23;90.48;101534.28;5037759;28;20033;-67
2023/08/24 04:11:32;;;;;;;16.98;10.60;;;;;;;18.20;90.22;101534.66;5039468;28;20025;-67
2023/08/24 04:13:58;;;;;;;18.17;11.18;;;;;;;18.16;90.22;101536.09;5037571;28;20051;-67
2023/08/24 04:16:23;;;;;;;16.30;10.93;;;;;;;18.18;90.11;101540.25;5035613;28;20676;-67
2023/08/24 04:18:48;;;;;;;17.17;11.00;;;;;;;18.14;90.39;101527.41;5036146;28;20078;-67
2023/08/24 04:21:13;;;;;;;17.30;11.88;;;;;;;18.19;90.68;101525.78;5038193;28;20450;-67
2023/08/24 04:23:44;;;;;;;20.58;12.20;;;;;;;18.18;90.20;101525.97;5041392;28;20035;-67
2023/08/24 04:26:10;;;;;;;17.60;12.45;;;;;;;18.14;90.03;101528.25;5030890;28;22249;-67
2023/08/24 04:28:35;;;;;;;16.77;12.00;;;;;;;18.12;89.98;101514.19;5030955;28;20091;-67
2023/08/24 04:31:00;;;;;;;20.90;13.55;;;;;;;18.10;90.26;101515.41;5036457;28;20537;-67
2023/08/24 04:33:26;;;;;;;22.13;14.02;;;;;;;18.09;90.25;101514.59;5033129;28;20025;-67
2023/08/24 04:35:51;;;;;;;21.00;14.40;;;;;;;18.12;90.67;101518.72;5030566;28;20159;-67
2023/08/24 04:38:17;;;;;;;20.58;15.15;;;;;;;18.08;90.68;101518.31;5038247;28;20024;-67
2023/08/24 04:40:51;;;;;;;23.23;15.20;;;;;;;18.07;90.83;101524.72;5035245;28;20550;-67
2023/08/24 04:43:16;;;;;;;21.25;14.85;;;;;;;18.08;91.01;101533.63;5035182;28;20039;-67
2023/08/24 04:45:42;;;;;;;20.38;14.45;;;;;;;18.06;90.96;101530.31;5036694;28;20025;-67
2023/08/24 04:48:07;;;;;;;19.73;14.80;;;;;;;18.04;90.82;101535.88;5030582;28;20557;-67
2023/08/24 04:50:32;;;;;;;21.27;15.40;;;;;;;18.01;90.90;101538.97;5043417;28;20086;-67
2023/08/24 04:52:57;;;;;;;24.80;15.77;;;;;;;18.03;91.12;101536.91;5035697;28;20491;-67
2023/08/24 04:55:23;;;;;;;23.35;16.00;;;;;;;18.04;91.25;101543.94;5034161;28;20090;-67
2023/08/24 04:57:48;;;;;;;20.73;16.35;;;;;;;18.08;91.14;101542.50;5036843;28;20025;-67
2023/08/24 05:00:16;;;;;;;23.63;15.90;;;;;;;18.09;91.32;101537.94;5031925;28;20029;-67
2023/08/24 05:02:42;;;;;;;20.48;14.73;;;;;;;18.10;90.92;101545.81;5029510;28;20120;-67
2023/08/24 05:05:09;;;;;;;21.42;15.75;;;;;;;18.09;91.12;101543.34;5039673;28;20108;-67
2023/08/24 05:07:35;;;;;;;22.60;15.45;;;;;;;18.04;91.17;101529.69;5035727;28;20035;-67
2023/08/24 05:10:00;;;;;;;20.13;15.38;;;;;;;18.05;91.28;101528.66;5036123;28;20108;-67
2023/08/24 05:12:25;;;;;;;22.35;15.93;;;;;;;18.05;91.08;101531.34;5028463;28;20036;-67
2023/08/24 05:14:51;;;;;;;22.02;15.27;;;;;;;18.07;91.29;101535.47;5030041;28;20029;-67
2023/08/24 05:17:16;;;;;;;21.98;16.05;;;;;;;18.11;91.54;101535.88;5030620;28;20040;-67
2023/08/24 05:19:41;;;;;;;21.25;15.65;;;;;;;18.12;91.31;101532.16;5033055;28;20033;-67
2023/08/24 05:22:06;;;;;;;23.20;16.30;;;;;;;18.09;91.46;101521.81;5036575;28;20453;-67
2023/08/24 05:24:32;;;;;;;23.75;17.02;;;;;;;18.13;91.56;101521.22;5038348;28;20053;-67
2023/08/24 05:26:57;;;;;;;25.55;16.80;;;;;;;18.14;91.42;101520.19;5036777;28;20021;-67
2023/08/24 05:29:22;;;;;;;28.63;16.80;;;;;;;18.17;91.63;101518.94;5034117;28;20025;-67
2023/08/24 05:31:47;;;;;;;23.33;16.77;;;;;;;18.18;91.50;101512.53;5032876;28;20013;-67
2023/08/24 05:34:13;;;;;;;28.38;17.52;;;;;;;18.20;91.55;101513.16;5032536;28;20609;-67
2023/08/24 05:36:38;;;;;;;23.50;17.08;;;;;;;18.25;91.74;101511.53;5034539;28;20055;-67
2023/08/24 05:39:03;;;;;;;26.55;17.80;;;;;;;18.29;91.79;101511.13;5030311;28;20398;-67
2023/08/24 05:41:28;;;;;;;25.55;17.55;;;;;;;18.33;92.10;101506.97;5036170;28;20029;-67
2023/08/24 05:43:54;;;;;;;25.63;17.63;;;;;;;18.37;91.68;101500.16;5047328;28;20119;-67
2023/08/24 05:46:19;;;;;;;24.67;17.75;;;;;;;18.41;91.45;101494.16;5040996;28;20025;-66
2023/08/24 05:48:44;;;;;;;28.65;18.40;;;;;;;18.45;91.66;101494.56;5035415;28;20405;-67
2023/08/24 05:51:12;;;;;;;26.75;18.10;;;;;;;18.48;91.22;101484.22;5037508;28;20049;-66
2023/08/24 05:53:38;;;;;;;26.77;18.58;;;;;;;18.50;91.32;101481.31;5038930;28;20024;-65
2023/08/24 05:56:03;;;;;;;26.38;18.33;;;;;;;18.54;91.18;101482.59;5043640;28;20025;-66
2023/08/24 05:58:29;;;;;;;27.88;18.10;;;;;;;18.58;91.20;101478.44;5044357;28;20056;-66
2023/08/24 06:00:58;;;;;;;28.85;18.05;;;;;;;18.62;91.16;101476.16;5047388;28;20021;-66
2023/08/24 06:03:24;;;;;;;27.48;18.58;;;;;;;18.68;90.81;101467.28;5041375;28;20036;-66
2023/08/24 06:05:50;;;;;;;27.70;18.30;;;;;;;18.71;90.69;101456.09;5046688;28;20021;-66
2023/08/24 06:08:15;;;;;;;29.92;18.45;;;;;;;18.76;90.65;101457.13;5044934;28;20514;-66
2023/08/24 06:10:41;;;;;;;28.55;17.52;;;;;;;18.82;90.40;101450.94;5046434;28;20023;-66
2023/08/24 06:13:06;;;;;;;28.70;18.33;;;;;;;18.86;90.10;101436.00;5039394;28;20025;-66
2023/08/24 06:15:31;;;;;;;23.27;18.13;;;;;;;18.88;89.74;101450.09;5042284;28;20025;-66
2023/08/24 06:17:58;;;;;;;23.80;17.20;;;;;;;18.93;89.65;101452.13;5042093;28;20043;-67
2023/08/24 06:20:24;;;;;;;25.85;18.98;;;;;;;19.00;89.70;101446.72;5041669;28;20032;-66
2023/08/24 06:22:50;;;;;;;26.55;17.98;;;;;;;19.05;89.45;101447.75;5037454;28;20024;-66
2023/08/24 06:25:15;;;;;;;27.85;18.45;;;;;;;19.10;89.59;101458.72;5038981;28;20029;-66
2023/08/24 06:27:40;;;;;;;26.55;18.23;;;;;;;19.13;89.06;101454.78;5043378;28;20095;-66
2023/08/24 06:30:06;;;;;;;26.40;18.52;;;;;;;19.17;88.44;101469.47;5038320;28;20025;-66
2023/08/24 06:32:32;;;;;;;26.25;18.45;;;;;;;19.23;88.50;101475.88;5036264;28;20019;-66
2023/08/24 06:34:57;;;;;;;23.25;18.00;;;;;;;19.30;88.25;101474.81;5041257;28;20029;-66
2023/08/24 06:37:22;;;;;;;24.75;17.83;;;;;;;19.37;88.27;101472.94;5045956;28;20032;-66
2023/08/24 06:39:48;;;;;;;24.65;17.95;;;;;;;19.45;88.00;101463.78;5037299;28;20083;-66
2023/08/24 06:42:13;;;;;;;26.73;18.33;;;;;;;19.53;87.74;101465.41;5037460;28;20522;-66
2023/08/24 06:44:38;;;;;;;27.38;18.17;;;;;;;19.60;87.40;101455.44;5036411;28;20147;-66
2023/08/24 06:47:04;;;;;;;26.48;18.70;;;;;;;19.67;87.52;101454.38;5047575;28;20103;-67
2023/08/24 06:49:29;;;;;;;27.05;18.17;;;;;;;19.72;87.14;101456.44;5039885;28;20430;-67
2023/08/24 06:51:54;;;;;;;23.92;17.40;;;;;;;19.75;86.51;101461.38;5039349;28;20021;-66
2023/08/24 06:54:19;;;;;;;27.60;17.65;;;;;;;19.79;86.18;101463.44;5043761;28;20021;-67
2023/08/24 06:56:45;;;;;;;27.38;18.15;;;;;;;19.86;85.88;101459.84;5046791;28;20474;-66
2023/08/24 06:59:12;;;;;;;24.35;18.15;;;;;;;19.93;85.84;101466.84;5038827;28;20046;-66
2023/08/24 07:01:38;;;;;;;29.00;17.58;;;;;;;19.96;85.41;101463.75;5033842;28;20026;-66
2023/08/24 07:04:03;;;;;;;26.90;17.98;;;;;;;20.04;85.04;101457.28;5039750;28;20020;-68
2023/08/24 07:06:28;;;;;;;23.58;16.98;;;;;;;20.07;84.33;101454.13;5043319;28;20048;-65
2023/08/24 07:08:54;;;;;;;22.52;17.58;;;;;;;20.12;84.10;101454.28;5048004;28;20104;-66
2023/08/24 07:11:20;;;;;;;26.60;17.55;;;;;;;20.20;83.83;101442.41;5041503;28;20419;-66
2023/08/24 07:13:46;;;;;;;30.30;18.13;;;;;;;20.28;84.00;101447.56;5047560;28;20028;-67
2023/08/24 07:16:11;;;;;;;26.05;18.00;;;;;;;20.34;84.10;101443.97;5040540;28;20033;-66
2023/08/24 07:18:36;;;;;;;25.02;17.30;;;;;;;20.36;83.51;101447.28;5044991;28;20029;-66
2023/08/24 07:21:02;;;;;;;23.85;17.45;;;;;;;20.42;83.16;101441.00;5035828;28;20033;-66
2023/08/24 07:23:28;;;;;;;24.02;17.33;;;;;;;20.48;82.99;101440.13;5043373;28;20040;-66
2023/08/24 07:25:53;;;;;;;22.65;16.95;;;;;;;20.57;82.87;101424.50;5042478;28;20039;-66
2023/08/24 07:28:19;;;;;;;21.42;17.10;;;;;;;20.60;82.52;101416.78;5043052;28;20514;-67
2023/08/24 07:30:44;;;;;;;28.48;17.05;;;;;;;20.64;81.85;101420.69;5038212;28;20497;-66
2023/08/24 07:33:10;;;;;;;22.65;17.33;;;;;;;20.70;81.79;101417.09;5035634;28;20057;-66
2023/08/24 07:35:35;;;;;;;22.02;17.25;;;;;;;20.77;81.44;101432.38;5039510;28;20035;-66
2023/08/24 07:38:00;;;;;;;19.67;16.80;;;;;;;20.82;80.88;101436.09;5036369;28;20434;-66
2023/08/24 07:40:26;;;;;;;24.90;17.00;;;;;;;20.93;81.04;101437.22;5041000;28;20033;-66
2023/08/24 07:42:54;;;;;;;22.70;16.90;;;;;;;21.03;81.15;101427.53;5035776;28;20400;-66
2023/08/24 07:45:20;;;;;;;21.50;16.83;;;;;;;21.13;80.98;101424.31;5043778;28;20025;-66
2023/08/24 07:47:45;;;;;;;20.25;15.43;;;;;;;21.18;79.90;101419.06;5040964;28;20021;-66
2023/08/24 07:50:11;;;;;;;23.30;17.42;;;;;;;21.30;79.86;101428.06;5033511;28;20018;-66
2023/08/24 07:52:40;;;;;;;23.92;16.58;;;;;;;21.39;79.67;101423.16;5044998;28;20035;-66
2023/08/24 07:55:07;;;;;;;20.15;15.52;;;;;;;21.48;79.44;101426.41;5031157;28;20041;-66
2023/08/24 07:57:36;;;;;;;18.75;14.68;;;;;;;21.53;78.64;101431.94;5035925;28;20475;-66
2023/08/24 08:00:02;;;;;;;;;;;;;;;21.64;78.55;101433.84;5029005;28;20049;-67
2023/08/24 08:02:27;;;;;;;21.65;14.35;;;;;;;21.65;77.71;101441.72;5044813;28;19913;-65
2023/08/24 08:04:57;;;;;;;18.73;14.32;;;;;;;21.74;77.42;101444.13;5045034;28;20020;-66
2023/08/24 08:07:23;;;;;;;18.85;13.35;;;;;;;21.79;76.41;101445.09;5044773;28;20040;-67
2023/08/24 08:09:48;;;;;;;18.52;14.35;;;;;;;21.89;76.12;101441.81;5042607;28;20016;-66
2023/08/24 08:12:13;;;;;;;20.73;14.50;;;;;;;21.95;75.64;101439.00;5049079;28;20104;-66
2023/08/24 08:14:39;;;;;;;18.80;14.43;;;;;;;22.03;75.52;101437.06;5050249;28;20090;-66
2023/08/24 08:17:04;;;;;;;19.90;14.98;;;;;;;22.03;75.18;101424.34;5041832;28;20402;-66
2023/08/24 08:19:30;;;;;;;21.50;14.52;;;;;;;22.12;75.09;101427.56;5044649;28;20082;-66
2023/08/24 08:21:57;;;;;;;19.17;13.80;;;;;;;22.19;74.06;101428.28;5048133;28;20079;-66
2023/08/24 08:24:22;;;;;;;18.70;14.05;;;;;;;22.28;74.27;101435.00;5045431;28;20033;-66
2023/08/24 08:26:48;;;;;;;23.08;14.07;;;;;;;22.38;74.16;101434.44;5045744;28;20104;-66
2023/08/24 08:29:13;;;;;;;19.58;13.75;;;;;;;22.46;74.10;101428.66;5047514;28;20021;-67
2023/08/24 08:31:38;;;;;;;19.17;13.23;;;;;;;22.49;73.46;101410.06;5043291;28;20021;-66
2023/08/24 08:34:04;;;;;;;18.90;14.02;;;;;;;22.54;73.33;101404.75;5049670;28;20025;-67
2023/08/24 08:36:32;;;;;;;21.85;13.35;;;;;;;22.59;73.08;101397.84;5038077;28;20036;-67
2023/08/24 08:38:57;;;;;;;18.90;14.03;;;;;;;22.61;72.69;101387.59;5050035;28;20021;-66
2023/08/24 08:41:27;;;;;;;23.85;14.18;;;;;;;22.62;72.84;101381.94;5042201;28;20116;-67
2023/08/24 08:43:52;;;;;;;20.50;14.00;;;;;;;22.65;72.76;101375.22;5048831;28;20029;-66
2023/08/24 08:46:17;;;;;;;19.60;14.07;;;;;;;22.68;72.90;101366.63;5036501;28;20036;-66
2023/08/24 08:48:45;;;;;;;19.63;14.70;;;;;;;22.77;73.39;101366.00;5035791;28;20452;-67
2023/08/24 08:51:13;;;;;;;22.92;15.40;;;;;;;22.86;73.91;101361.09;5049350;28;20049;-67
2023/08/24 08:53:38;;;;;;;18.15;14.13;;;;;;;22.89;73.40;101348.97;5045209;28;20025;-66
2023/08/24 08:56:04;;;;;;;19.00;13.63;;;;;;;22.92;72.65;101346.59;5032364;28;20025;-67
2023/08/24 08:58:31;;;;;;;18.50;13.73;;;;;;;23.00;72.61;101350.78;5045514;28;20031;-66
2023/08/24 09:00:59;;;;;;;21.92;14.68;;;;;;;23.07;72.39;101337.94;5038269;28;20029;-66
2023/08/24 09:03:26;;;;;;;20.27;14.98;;;;;;;23.18;73.20;101332.47;5033506;28;20036;-67
2023/08/24 09:05:52;;;;;;;20.67;15.10;;;;;;;23.26;73.19;101325.84;5039172;28;20021;-66
2023/08/24 09:08:18;;;;;;;22.33;14.88;;;;;;;23.34;73.00;101325.44;5034142;28;20036;-67
2023/08/24 09:10:44;;;;;;;23.88;16.55;;;;;;;23.38;72.19;101320.34;5034263;28;20162;-67
2023/08/24 09:13:09;;;;;;;20.60;15.90;;;;;;;23.46;71.53;101301.00;5034397;28;20037;-67
2023/08/24 09:15:36;;;;;;;24.38;16.30;;;;;;;23.47;71.39;101302.63;5044307;28;20077;-68
2023/08/24 09:18:02;;;;;;;22.70;17.15;;;;;;;23.48;71.44;101296.16;5047210;28;20059;-67
2023/08/24 09:20:29;;;;;;;23.48;16.65;;;;;;;23.54;71.10;101292.44;5042634;28;20091;-67
2023/08/24 09:22:56;;;;;;;24.15;17.77;;;;;;;23.60;71.21;101282.53;5030796;28;20456;-68
2023/08/24 09:25:22;;;;;;;22.83;18.23;;;;;;;23.63;71.28;101287.47;5032836;28;21030;-67
2023/08/24 09:27:59;;;;;;;22.70;17.70;;;;;;;23.73;71.26;101290.38;5036415;28;20029;-67
2023/08/24 09:30:34;;;;;;;26.40;17.75;;;;;;;23.78;70.84;101293.16;5037248;28;20395;-67
2023/08/24 09:33:03;;;;;;;19.88;16.88;;;;;;;23.81;70.54;101275.56;5043297;28;20020;-67
2023/08/24 09:35:34;;;;;;;23.27;16.52;;;;;;;23.83;70.01;101281.56;5044110;28;20026;-67
2023/08/24 09:38:00;;;;;;;21.92;16.50;;;;;;;23.85;69.97;101274.00;5040478;28;20025;-67
2023/08/24 09:40:26;;;;;;;18.73;15.95;;;;;;;23.89;70.53;101277.84;5041511;28;20541;-67
2023/08/24 09:42:51;;;;;;;20.67;15.60;;;;;;;23.89;69.94;101280.56;5047407;28;20036;-67
2023/08/24 09:45:16;;;;;;;22.33;15.93;;;;;;;23.92;69.98;101301.75;5045626;28;20017;-67
2023/08/24 09:47:49;;;;;;;23.17;16.10;;;;;;;23.98;69.97;101314.34;5042958;28;20025;-67
2023/08/24 09:50:14;;;;;;;22.42;15.18;;;;;;;24.09;70.46;101332.44;5040936;28;20021;-67
2023/08/24 09:52:42;;;;;;;23.08;16.10;;;;;;;24.12;70.20;101331.94;5048462;28;20040;-68
2023/08/24 09:55:09;;;;;;;21.40;15.35;;;;;;;24.17;70.67;101323.84;5047930;28;20020;-67
2023/08/24 09:57:37;;;;;;;20.75;15.85;;;;;;;24.22;70.91;101329.34;5047412;28;20535;-68
2023/08/24 10:00:10;;;;;;;;;;;;;;;24.33;70.94;101324.94;5039506;28;20032;-67
2023/08/24 10:02:37;;;;;;;19.10;15.07;;;;;;;24.23;70.42;101327.47;5042301;28;20680;-67
2023/08/24 10:05:04;;;;;;;19.23;15.15;;;;;;;24.23;70.23;101324.75;5041808;28;20028;-67
2023/08/24 10:07:30;;;;;;;24.90;14.45;;;;;;;24.18;70.23;101330.94;5038622;28;20029;-65
2023/08/24 10:10:03;;;;;;;20.85;14.77;;;;;;;24.18;70.62;101336.34;5034964;28;20040;-67
2023/08/24 10:12:28;;;;;;;20.90;14.43;;;;;;;24.15;70.40;101347.72;5031921;28;20621;-67
2023/08/24 10:15:01;;;;;;;21.45;15.00;;;;;;;24.13;70.15;101349.03;5031774;28;20057;-67
2023/08/24 10:17:27;;;;;;;17.90;15.48;;;;;;;24.08;70.99;101337.03;5033181;28;20086;-67
2023/08/24 10:19:55;;;;;;;25.38;15.50;;;;;;;24.09;71.30;101329.72;5031805;28;20487;-67
2023/08/24 10:22:20;;;;;;;18.45;15.38;;;;;;;24.03;71.17;101328.00;5030041;28;20033;-67
2023/08/24 10:24:48;;;;;;;18.50;14.38;;;;;;;24.04;70.86;101330.47;5030080;28;20032;-67
2023/08/24 10:27:14;;;;;;;20.63;15.55;;;;;;;23.98;70.68;101330.59;5034882;28;20491;-68
2023/08/24 10:29:39;;;;;;;20.27;15.57;;;;;;;24.01;70.77;101333.69;5035807;28;20017;-68
2023/08/24 10:32:06;;;;;;;21.52;15.18;;;;;;;24.00;71.55;101332.03;5036923;28;20048;-68
2023/08/24 10:34:32;;;;;;;21.75;15.43;;;;;;;24.01;71.83;101335.56;5031180;28;20083;-68
2023/08/24 10:37:07;;;;;;;23.83;16.17;;;;;;;23.99;72.05;101337.69;5030543;28;20112;-68
2023/08/24 10:39:35;;;;;;;22.13;16.52;;;;;;;23.93;72.00;101333.25;5027743;28;21168;-67
2023/08/24 10:42:00;;;;;;;21.33;15.85;;;;;;;23.91;72.52;101340.81;5028161;28;20052;-68
2023/08/24 10:44:36;;;;;;;21.08;16.35;;;;;;;23.90;72.19;101345.41;5031941;28;20511;-68
2023/08/24 10:47:15;;;;;;;21.70;16.15;;;;;;;23.86;72.80;101346.97;5037309;28;20033;-68
2023/08/24 10:49:41;;;;;;;21.48;16.98;;;;;;;23.79;73.83;101355.28;5048417;28;20030;-68
2023/08/24 10:52:19;;;;;;;23.17;17.15;;;;;;;23.74;74.84;101360.63;5032606;28;20025;-68
2023/08/24 10:54:47;;;;;;;22.63;17.02;;;;;;;23.67;75.54;101356.41;5028820;28;20060;-68
2023/08/24 10:57:20;;;;;;;24.33;17.05;;;;;;;23.60;76.15;101339.47;5035532;28;20487;-67
2023/08/24 10:59:45;;;;;;;25.10;17.58;;;;;;;23.62;76.39;101338.16;5028970;28;20045;-68
2023/08/24 11:02:19;;;;;;;23.27;17.95;;;;;;;23.65;77.31;101331.44;5037971;28;20059;-68
2023/08/24 11:05:04;;;;;;;23.90;17.70;;;;;;;23.69;77.52;101317.13;5036680;28;20394;-68
2023/08/24 11:07:29;;;;;;;24.65;18.75;;;;;;;23.69;77.09;101311.72;5031498;28;20480;-68
2023/08/24 11:09:54;;;;;;;26.52;18.35;;;;;;;23.76;76.40;101308.84;5029522;28;20036;-68
2023/08/24 11:12:19;;;;;;;22.08;17.65;;;;;;;23.86;75.90;101308.19;5031329;28;20021;-68